Huvudsida
METAR-TAF:

METAR-TAF

Flygplatser :

Viterbo, Italien

latitud: 42-26N, longitud: 012-03E, höjd: 300 m

Aktuellt väderrapport

Denna rapport gjordes för 1 timme och 47 minuter sedan, klockan 17:55 UTC
Vind 7 kt från nord/nordost
Temperatur 10°C
Fuktighet 23%
Tryck 1017 hPa
Sikt 10 km eller mer
Inga moln under 1 500 m eller inga cumulonimbus

METAR: LIRV 281755Z 03007KT CAVOK 10/M10 Q1017 RMK SKC MON E SE LIB NC VIS MIN 9999 WIND THR04 /////KT BLU

Tid: 20:42 (19:42 UTC)

Väderprognos

Denna rapport gjordes för 5 timmar och 42 minuter sedan, klockan 14:00 UTC
Prognos gäller från 28 kl. 15 UTC till 28 kl. 24 UTC
Vind 16 kt från nord/nordost
Sikt 10 km eller mer
Inga moln under 1 500 m eller inga cumulonimbus
Blir
från 28 kl. 19 UTC till 28 kl. 21 UTC
Vind 3 kt varierande vindriktning
Sikt: 5000 m
Få moln på en höjd av 700 ft
fuktdis

TAF: LIRV 281400Z 2815/2824 03016KT CAVOK BECMG 2819/2821 VRB03KT 5000 BR FEW007

Aktuella väderrapporter och prognoser från 4000 flygplatser (METAR- och TAF-rapporter).

De tillgängliga stationerna syns som gula och röda prickar på kartan.

För musen över prickarna för att se namnen på stationerna.

Klicka sedan för att få väderrapporter och prognoser.

För att ändra kartan: Klicka på de gröna knapparna med ett svart kors på för att zooma in; den gröna knappen med ett streck på för att zooma ut; eller på de gröna pilarna för angränsande kartor.


METAR-TAF: